Time,TemperatureF,DewpointF,PressureIn,WindDirection,WindDirectionDegrees,WindSpeedMPH,WindSpeedGustMPH,Humidity,HourlyPrecipIn,Conditions,Clouds,dailyrainin,SoftwareType,DateUTC
2013-03-12 00:02:00,49.0,30.0,30.03,North,0,0.0,0.0,48,0.00,,,0.00,,2013-03-12 05:02:00,
2013-03-12 00:12:00,49.0,30.0,30.03,North,0,0.0,0.0,48,0.00,,,0.00,,2013-03-12 05:12:00,
2013-03-12 00:22:00,48.0,29.0,30.03,North,0,0.0,0.0,48,0.00,,,0.00,,2013-03-12 05:22:00,
2013-03-12 00:32:00,48.0,30.0,30.03,North,0,0.0,0.0,49,0.00,,,0.00,,2013-03-12 05:32:00,
2013-03-12 00:42:00,48.0,30.0,30.03,North,0,0.0,0.0,49,0.00,,,0.00,,2013-03-12 05:42:00,
2013-03-12 00:52:00,48.0,30.0,30.03,North,0,0.0,0.0,49,0.00,,,0.00,,2013-03-12 05:52:00,
2013-03-12 01:02:00,48.0,28.0,30.03,North,0,0.0,0.0,46,0.00,,,0.00,,2013-03-12 06:02:00,
2013-03-12 01:12:00,48.0,28.0,30.03,North,0,0.0,0.0,46,0.00,,,0.00,,2013-03-12 06:12:00,
2013-03-12 01:22:00,49.0,29.0,30.03,North,0,0.0,0.0,46,0.00,,,0.00,,2013-03-12 06:22:00,
2013-03-12 01:32:00,49.0,29.0,30.03,North,0,0.0,0.0,46,0.00,,,0.00,,2013-03-12 06:32:00,
2013-03-12 01:42:00,49.0,29.0,30.03,North,0,0.0,0.0,46,0.00,,,0.00,,2013-03-12 06:42:00,
2013-03-12 01:52:00,49.0,29.0,30.03,North,0,0.0,0.0,46,0.00,,,0.00,,2013-03-12 06:52:00,
2013-03-12 02:02:00,49.0,29.0,30.03,North,0,0.0,0.0,46,0.00,,,0.00,,2013-03-12 07:02:00,
2013-03-12 02:52:00,47.0,28.0,30.03,North,0,0.0,0.0,47,0.00,,,0.00,,2013-03-12 07:52:00,
2013-03-12 03:02:00,47.0,28.0,30.03,North,0,0.0,0.0,47,0.00,,,0.00,,2013-03-12 08:02:00,
2013-03-12 03:13:00,47.0,28.0,30.03,North,0,0.0,0.0,47,0.00,,,0.00,,2013-03-12 08:13:00,
2013-03-12 03:22:00,47.0,28.0,30.03,North,0,0.0,0.0,47,0.00,,,0.00,,2013-03-12 08:22:00,
2013-03-12 03:33:00,47.0,28.0,30.03,North,0,0.0,0.0,47,0.00,,,0.00,,2013-03-12 08:33:00,
2013-03-12 03:42:00,47.0,28.0,30.03,North,0,0.0,0.0,47,0.00,,,0.00,,2013-03-12 08:42:00,
2013-03-12 03:52:00,46.0,27.0,30.02,North,0,0.0,0.0,48,0.00,,,0.00,,2013-03-12 08:52:00,
2013-03-12 04:03:00,46.0,27.0,30.02,North,0,0.0,0.0,48,0.00,,,0.00,,2013-03-12 09:03:00,
2013-03-12 04:12:00,46.0,27.0,30.02,North,0,0.0,0.0,48,0.00,,,0.00,,2013-03-12 09:12:00,
2013-03-12 04:22:00,46.0,27.0,30.02,North,0,0.0,0.0,48,0.00,,,0.00,,2013-03-12 09:22:00,
2013-03-12 04:32:00,46.0,27.0,30.02,North,0,0.0,0.0,48,0.00,,,0.00,,2013-03-12 09:32:00,
2013-03-12 04:42:00,46.0,27.0,30.02,North,0,0.0,0.0,48,0.00,,,0.00,,2013-03-12 09:42:00,
2013-03-12 04:52:00,46.0,27.0,30.02,North,0,0.0,0.0,48,0.00,,,0.00,,2013-03-12 09:52:00,
2013-03-12 05:02:00,46.0,27.0,30.02,North,0,0.0,0.0,47,0.00,,,0.00,,2013-03-12 10:02:00,
2013-03-12 05:12:00,46.0,27.0,30.02,North,0,0.0,0.0,47,0.00,,,0.00,,2013-03-12 10:12:00,
2013-03-12 05:22:00,46.0,27.0,30.02,North,0,0.0,0.0,47,0.00,,,0.00,,2013-03-12 10:22:00,
2013-03-12 05:32:00,46.0,26.0,30.02,North,0,0.0,0.0,46,0.00,,,0.00,,2013-03-12 10:32:00,
2013-03-12 05:42:00,46.0,26.0,30.02,North,0,0.0,0.0,46,0.00,,,0.00,,2013-03-12 10:42:00,
2013-03-12 05:52:00,46.0,26.0,30.02,North,0,0.0,0.0,46,0.00,,,0.00,,2013-03-12 10:52:00,
2013-03-12 06:02:00,46.0,26.0,30.02,North,0,0.0,0.0,46,0.00,,,0.00,,2013-03-12 11:02:00,
2013-03-12 06:22:00,46.0,26.0,30.02,North,0,0.0,0.0,45,0.00,,,0.00,,2013-03-12 11:22:00,
2013-03-12 06:32:00,46.0,26.0,30.02,North,0,0.0,0.0,45,0.00,,,0.00,,2013-03-12 11:32:00,
2013-03-12 06:42:00,46.0,26.0,30.02,North,0,0.0,0.0,45,0.00,,,0.00,,2013-03-12 11:42:00,
2013-03-12 06:52:00,46.0,26.0,30.02,North,0,0.0,0.0,45,0.00,,,0.00,,2013-03-12 11:52:00,
2013-03-12 07:02:00,46.0,26.0,30.03,North,0,0.0,0.0,46,0.00,,,0.00,,2013-03-12 12:02:00,
2013-03-12 07:12:00,46.0,26.0,30.03,North,0,0.0,0.0,46,0.00,,,0.00,,2013-03-12 12:12:00,
2013-03-12 07:22:00,46.0,26.0,30.03,North,0,0.0,0.0,46,0.00,,,0.00,,2013-03-12 12:22:00,
2013-03-12 07:32:00,46.0,26.0,30.03,North,0,0.0,0.0,46,0.00,,,0.00,,2013-03-12 12:32:00,
2013-03-12 07:42:00,46.0,26.0,30.03,North,0,0.0,0.0,46,0.00,,,0.00,,2013-03-12 12:42:00,
2013-03-12 07:52:00,46.0,25.0,30.05,North,0,0.0,0.0,44,0.00,,,0.00,,2013-03-12 12:52:00,
2013-03-12 08:02:00,46.0,25.0,30.05,North,0,0.0,0.0,44,0.00,,,0.00,,2013-03-12 13:02:00,
2013-03-12 08:12:00,46.0,25.0,30.05,North,0,0.0,0.0,44,0.00,,,0.00,,2013-03-12 13:12:00,
2013-03-12 08:22:00,46.0,25.0,30.05,North,0,0.0,0.0,44,0.00,,,0.00,,2013-03-12 13:22:00,
2013-03-12 08:33:00,46.0,25.0,30.06,North,0,0.0,0.0,44,0.00,,,0.00,,2013-03-12 13:33:00,
2013-03-12 08:43:00,46.0,25.0,30.06,North,0,0.0,0.0,44,0.00,,,0.00,,2013-03-12 13:43:00,
2013-03-12 08:52:00,46.0,25.0,30.06,North,0,0.0,0.0,44,0.00,,,0.00,,2013-03-12 13:52:00,
2013-03-12 09:02:00,47.0,26.0,30.06,North,0,0.0,0.0,43,0.00,,,0.00,,2013-03-12 14:02:00,
2013-03-12 09:12:00,47.0,26.0,30.06,North,0,0.0,0.0,43,0.00,,,0.00,,2013-03-12 14:12:00,
2013-03-12 09:22:00,50.0,29.0,30.07,North,0,0.0,0.0,44,0.00,,,0.00,,2013-03-12 14:22:00,
2013-03-12 09:32:00,51.0,31.0,30.07,North,0,0.0,0.0,46,0.00,,,0.00,,2013-03-12 14:32:00,
2013-03-12 09:42:00,51.0,31.0,30.07,North,0,0.0,0.0,46,0.00,,,0.00,,2013-03-12 14:42:00,
2013-03-12 09:53:00,52.0,34.0,30.08,North,0,0.0,0.0,50,0.00,,,0.00,,2013-03-12 14:53:00,
2013-03-12 10:02:00,53.0,35.0,30.08,North,0,0.0,0.0,51,0.00,,,0.00,,2013-03-12 15:02:00,
2013-03-12 10:12:00,53.0,35.0,30.08,North,0,0.0,0.0,51,0.00,,,0.00,,2013-03-12 15:12:00,
2013-03-12 10:22:00,55.0,37.0,30.09,North,0,0.0,0.0,51,0.00,,,0.00,,2013-03-12 15:22:00,
2013-03-12 10:32:00,55.0,37.0,30.09,North,0,0.0,0.0,51,0.00,,,0.00,,2013-03-12 15:32:00,
2013-03-12 10:42:00,55.0,37.0,30.09,North,0,0.0,0.0,51,0.00,,,0.00,,2013-03-12 15:42:00,
2013-03-12 10:53:00,57.0,37.0,30.09,North,0,0.0,0.0,47,0.00,,,0.00,,2013-03-12 15:53:00,
2013-03-12 11:02:00,57.0,37.0,30.09,North,0,0.0,0.0,47,0.00,,,0.00,,2013-03-12 16:02:00,
2013-03-12 11:12:00,57.0,37.0,30.09,North,0,0.0,0.0,47,0.00,,,0.00,,2013-03-12 16:12:00,
2013-03-12 11:22:00,62.0,37.0,30.10,North,0,0.0,0.0,39,0.00,,,0.00,,2013-03-12 16:22:00,
2013-03-12 11:33:00,62.0,37.0,30.10,North,0,0.0,0.0,39,0.00,,,0.00,,2013-03-12 16:33:00,
2013-03-12 11:43:00,62.0,37.0,30.10,North,0,0.0,0.0,39,0.00,,,0.00,,2013-03-12 16:43:00,
2013-03-12 11:53:00,64.0,38.0,30.10,North,0,0.0,0.0,38,0.00,,,0.00,,2013-03-12 16:53:00,
2013-03-12 12:02:00,65.0,37.0,30.10,North,0,0.0,0.0,36,0.00,,,0.00,,2013-03-12 17:02:00,
2013-03-12 12:12:00,65.0,37.0,30.10,North,0,0.0,0.0,36,0.00,,,0.00,,2013-03-12 17:12:00,
2013-03-12 12:22:00,67.0,38.0,30.10,North,0,0.0,0.0,34,0.00,,,0.00,,2013-03-12 17:22:00,
2013-03-12 12:33:00,68.0,38.0,30.10,North,0,0.0,0.0,33,0.00,,,0.00,,2013-03-12 17:33:00,
2013-03-12 12:43:00,68.0,38.0,30.10,North,0,0.0,0.0,33,0.00,,,0.00,,2013-03-12 17:43:00,
2013-03-12 12:53:00,70.0,37.0,30.10,North,0,0.0,0.0,30,0.00,,,0.00,,2013-03-12 17:53:00,
2013-03-12 13:02:00,71.0,38.0,30.10,North,0,0.0,0.0,30,0.00,,,0.00,,2013-03-12 18:02:00,
2013-03-12 13:13:00,71.0,38.0,30.10,North,0,0.0,0.0,30,0.00,,,0.00,,2013-03-12 18:13:00,
2013-03-12 13:23:00,71.0,38.0,30.10,North,0,0.0,0.0,30,0.00,,,0.00,,2013-03-12 18:23:00,
2013-03-12 13:33:00,73.0,38.0,30.09,North,0,0.0,0.0,28,0.00,,,0.00,,2013-03-12 18:33:00,
2013-03-12 13:42:00,73.0,38.0,30.09,North,0,0.0,0.0,28,0.00,,,0.00,,2013-03-12 18:42:00,
2013-03-12 13:53:00,73.0,38.0,30.09,North,0,0.0,0.0,28,0.00,,,0.00,,2013-03-12 18:53:00,
2013-03-12 14:03:00,75.0,39.0,30.08,North,0,0.0,0.0,27,0.00,,,0.00,,2013-03-12 19:03:00,
2013-03-12 14:13:00,75.0,39.0,30.08,North,0,0.0,0.0,27,0.00,,,0.00,,2013-03-12 19:13:00,
2013-03-12 14:23:00,75.0,39.0,30.08,North,0,0.0,0.0,27,0.00,,,0.00,,2013-03-12 19:23:00,
2013-03-12 14:33:00,78.0,37.0,30.06,North,0,0.0,0.0,23,0.00,,,0.00,,2013-03-12 19:33:00,
2013-03-12 14:44:00,78.0,37.0,30.06,North,0,0.0,0.0,23,0.00,,,0.00,,2013-03-12 19:44:00,
2013-03-12 14:53:00,78.0,38.0,30.06,North,0,0.0,0.0,24,0.00,,,0.00,,2013-03-12 19:53:00,
2013-03-12 15:02:00,80.0,39.0,30.05,North,0,0.0,0.0,23,0.00,,,0.00,,2013-03-12 20:02:00,
2013-03-12 15:12:00,80.0,39.0,30.05,North,0,0.0,0.0,23,0.00,,,0.00,,2013-03-12 20:12:00,
2013-03-12 15:22:00,80.0,38.0,30.05,North,0,0.0,0.0,22,0.00,,,0.00,,2013-03-12 20:22:00,
2013-03-12 15:32:00,80.0,38.0,30.05,North,0,0.0,0.0,22,0.00,,,0.00,,2013-03-12 20:32:00,
2013-03-12 15:42:00,80.0,38.0,30.05,North,0,0.0,0.0,22,0.00,,,0.00,,2013-03-12 20:42:00,
2013-03-12 15:53:00,81.0,39.0,30.04,North,0,0.0,0.0,22,0.00,,,0.00,,2013-03-12 20:53:00,
2013-03-12 16:02:00,82.0,38.0,30.04,North,0,0.0,0.0,21,0.00,,,0.00,,2013-03-12 21:02:00,
2013-03-12 16:12:00,82.0,38.0,30.04,North,0,0.0,0.0,21,0.00,,,0.00,,2013-03-12 21:12:00,
2013-03-12 16:22:00,82.0,38.0,30.04,North,0,0.0,0.0,21,0.00,,,0.00,,2013-03-12 21:22:00,
2013-03-12 16:32:00,82.0,37.0,30.03,North,0,0.0,0.0,20,0.00,,,0.00,,2013-03-12 21:32:00,
2013-03-12 16:43:00,82.0,37.0,30.03,North,0,0.0,0.0,20,0.00,,,0.00,,2013-03-12 21:43:00,
2013-03-12 16:53:00,81.0,37.0,30.03,North,0,0.0,0.0,21,0.00,,,0.00,,2013-03-12 21:53:00,
2013-03-12 17:02:00,82.0,37.0,30.03,North,0,0.0,0.0,20,0.00,,,0.00,,2013-03-12 22:02:00,
2013-03-12 17:12:00,82.0,37.0,30.03,North,0,0.0,0.0,20,0.00,,,0.00,,2013-03-12 22:12:00,
2013-03-12 17:22:00,82.0,37.0,30.03,North,0,0.0,0.0,20,0.00,,,0.00,,2013-03-12 22:22:00,
2013-03-12 17:33:00,81.0,36.0,30.03,North,0,0.0,0.0,20,0.00,,,0.00,,2013-03-12 22:33:00,
2013-03-12 17:42:00,81.0,36.0,30.03,North,0,0.0,0.0,20,0.00,,,0.00,,2013-03-12 22:42:00,
2013-03-12 17:52:00,81.0,36.0,30.03,North,0,0.0,0.0,20,0.00,,,0.00,,2013-03-12 22:52:00,
2013-03-12 18:02:00,80.0,37.0,30.03,North,0,0.0,0.0,21,0.00,,,0.00,,2013-03-12 23:02:00,
2013-03-12 18:12:00,80.0,37.0,30.03,North,0,0.0,0.0,21,0.00,,,0.00,,2013-03-12 23:12:00,
2013-03-12 18:22:00,79.0,36.0,30.03,North,0,0.0,0.0,21,0.00,,,0.00,,2013-03-12 23:22:00,
2013-03-12 18:34:00,79.0,36.0,30.03,North,0,0.0,0.0,21,0.00,,,0.00,,2013-03-12 23:34:00,
2013-03-12 18:43:00,79.0,36.0,30.03,North,0,0.0,0.0,21,0.00,,,0.00,,2013-03-12 23:43:00,
2013-03-12 18:52:00,77.0,36.0,30.04,North,0,0.0,0.0,23,0.00,,,0.00,,2013-03-12 23:52:00,
2013-03-12 19:03:00,76.0,36.0,30.04,North,0,0.0,0.0,23,0.00,,,0.00,,2013-03-13 00:03:00,
2013-03-12 19:12:00,76.0,36.0,30.04,North,0,0.0,0.0,23,0.00,,,0.00,,2013-03-13 00:12:00,
2013-03-12 19:23:00,75.0,36.0,30.04,North,0,0.0,0.0,24,0.00,,,0.00,,2013-03-13 00:23:00,
2013-03-12 19:33:00,73.0,35.0,30.05,North,0,0.0,0.0,25,0.00,,,0.00,,2013-03-13 00:33:00,
2013-03-12 19:42:00,73.0,35.0,30.05,North,0,0.0,0.0,25,0.00,,,0.00,,2013-03-13 00:42:00,
2013-03-12 19:53:00,71.0,37.0,30.05,North,0,0.0,0.0,29,0.00,,,0.00,,2013-03-13 00:53:00,
2013-03-12 20:03:00,67.0,36.0,30.05,North,0,0.0,0.0,32,0.00,,,0.00,,2013-03-13 01:03:00,
2013-03-12 20:12:00,67.0,36.0,30.05,North,0,0.0,0.0,32,0.00,,,0.00,,2013-03-13 01:12:00,
2013-03-12 20:22:00,65.0,36.0,30.06,North,0,0.0,0.0,34,0.00,,,0.00,,2013-03-13 01:22:00,
2013-03-12 20:32:00,64.0,35.0,30.05,North,0,0.0,0.0,34,0.00,,,0.00,,2013-03-13 01:32:00,
2013-03-12 20:42:00,64.0,35.0,30.05,North,0,0.0,0.0,34,0.00,,,0.00,,2013-03-13 01:42:00,
2013-03-12 20:52:00,64.0,35.0,30.05,North,0,0.0,0.0,34,0.00,,,0.00,,2013-03-13 01:52:00,
2013-03-12 21:02:00,64.0,35.0,30.05,North,0,0.0,0.0,34,0.00,,,0.00,,2013-03-13 02:02:00,
2013-03-12 21:33:00,60.0,34.0,30.09,North,0,0.0,0.0,38,0.00,,,0.00,,2013-03-13 02:33:00,
2013-03-12 21:43:00,60.0,34.0,30.09,North,0,0.0,0.0,38,0.00,,,0.00,,2013-03-13 02:43:00,
2013-03-12 21:52:00,59.0,33.0,30.09,North,0,0.0,0.0,38,0.00,,,0.00,,2013-03-13 02:52:00,
2013-03-12 22:02:00,59.0,33.0,30.09,North,0,0.0,0.0,38,0.00,,,0.00,,2013-03-13 03:02:00,
2013-03-12 22:12:00,59.0,33.0,30.09,North,0,0.0,0.0,38,0.00,,,0.00,,2013-03-13 03:12:00,
2013-03-12 22:22:00,58.0,33.0,30.12,North,0,0.0,0.0,39,0.00,,,0.00,,2013-03-13 03:22:00,
2013-03-12 22:32:00,56.0,35.0,30.14,North,0,0.0,0.0,45,0.00,,,0.00,,2013-03-13 03:32:00,
2013-03-12 22:42:00,56.0,35.0,30.14,North,0,0.0,0.0,45,0.00,,,0.00,,2013-03-13 03:42:00,
2013-03-12 22:52:00,54.0,35.0,30.14,North,0,0.0,0.0,49,0.00,,,0.00,,2013-03-13 03:52:00,
2013-03-12 23:03:00,52.0,35.0,30.15,North,0,0.0,0.0,52,0.00,,,0.00,,2013-03-13 04:03:00,
2013-03-12 23:13:00,52.0,35.0,30.15,North,0,0.0,0.0,52,0.00,,,0.00,,2013-03-13 04:13:00,
2013-03-12 23:22:00,52.0,35.0,30.15,North,0,0.0,0.0,52,0.00,,,0.00,,2013-03-13 04:22:00,
2013-03-12 23:32:00,51.0,35.0,30.17,North,0,0.0,0.0,55,0.00,,,0.00,,2013-03-13 04:32:00,
2013-03-12 23:42:00,51.0,35.0,30.17,North,0,0.0,0.0,55,0.00,,,0.00,,2013-03-13 04:42:00,
2013-03-12 23:52:00,54.0,34.0,30.18,North,0,0.0,0.0,47,0.00,,,0.00,,2013-03-13 04:52:00,